createdAt,value
2017-06-01T00:00:27.341Z,50.40
2017-06-01T00:02:55.236Z,46.10
2017-06-01T00:05:23.168Z,48.70
2017-06-01T00:07:51.058Z,48.60
2017-06-01T00:10:18.957Z,48.60
2017-06-01T00:12:46.521Z,48.60
2017-06-01T00:15:14.024Z,45.20
2017-06-01T00:17:41.520Z,41.90
2017-06-01T00:20:09.091Z,44.90
2017-06-01T00:22:37.001Z,43.40
2017-06-01T00:25:04.915Z,45.00
2017-06-01T00:27:32.487Z,45.00
2017-06-01T00:30:00.375Z,42.20
2017-06-01T00:32:27.870Z,42.20
2017-06-01T00:34:55.881Z,46.50
2017-06-01T00:37:23.376Z,46.50
2017-06-01T00:39:51.272Z,44.00
2017-06-01T00:42:19.220Z,45.80
2017-06-01T00:44:47.367Z,43.60
2017-06-01T00:47:14.864Z,43.60
2017-06-01T00:49:42.794Z,48.60
2017-06-01T00:52:10.300Z,48.60
2017-06-01T00:54:38.194Z,47.00
2017-06-01T00:57:05.736Z,47.00
2017-06-01T00:59:33.252Z,47.10
2017-06-01T01:02:01.148Z,50.10
2017-06-01T01:04:29.076Z,54.20
2017-06-01T01:06:56.827Z,54.20
2017-06-01T01:09:24.725Z,50.40
2017-06-01T01:11:52.261Z,50.40
2017-06-01T01:14:19.758Z,49.00
2017-06-01T01:16:47.653Z,49.30
2017-06-01T01:19:15.577Z,52.60
2017-06-01T01:21:43.148Z,52.70
2017-06-01T01:24:10.653Z,48.10
2017-06-01T01:26:38.574Z,48.40
2017-06-01T01:29:06.180Z,48.40
2017-06-01T01:31:34.076Z,47.40
2017-06-01T01:34:01.608Z,47.40
2017-06-01T01:36:29.515Z,50.10
2017-06-01T01:38:57.421Z,50.80
2017-06-01T01:41:25.033Z,50.90
2017-06-01T01:43:52.537Z,53.60
2017-06-01T01:46:20.440Z,48.90
2017-06-01T01:48:48.369Z,52.60
2017-06-01T01:51:16.268Z,54.50
2017-06-01T01:53:44.538Z,54.50
2017-06-01T01:56:12.315Z,48.30
2017-06-01T01:58:41.105Z,48.90
2017-06-01T02:01:08.616Z,48.90
2017-06-01T02:03:36.536Z,51.10
2017-06-01T02:06:04.024Z,50.90
2017-06-01T02:08:31.925Z,54.80
2017-06-01T02:10:59.862Z,48.40
2017-06-01T02:13:27.743Z,53.00
2017-06-01T02:15:55.240Z,53.20
2017-06-01T02:18:23.167Z,47.40
2017-06-01T02:20:51.387Z,44.10
2017-06-01T02:23:19.292Z,47.00
2017-06-01T02:25:47.216Z,44.60
2017-06-01T02:28:15.100Z,49.30
2017-06-01T02:30:42.598Z,49.30
2017-06-01T02:33:10.153Z,43.30
2017-06-01T02:35:38.044Z,45.80
2017-06-01T02:38:05.539Z,45.90
2017-06-01T02:40:33.472Z,50.70
2017-06-01T02:43:01.265Z,50.70
2017-06-01T02:45:30.422Z,50.40
2017-06-01T02:47:58.451Z,48.00
2017-06-01T02:50:25.958Z,47.80
2017-06-01T02:52:53.862Z,44.30
2017-06-01T02:55:21.413Z,44.30
2017-06-01T02:57:49.179Z,47.10
2017-06-01T03:00:17.070Z,49.30
2017-06-01T03:02:44.608Z,49.30
2017-06-01T03:05:12.506Z,46.80
2017-06-01T03:07:40.407Z,49.00
2017-06-01T03:10:07.939Z,49.00
2017-06-01T03:12:35.444Z,53.50
2017-06-01T03:15:03.343Z,46.70
2017-06-01T03:17:31.003Z,46.80
2017-06-01T03:19:58.506Z,50.90
2017-06-01T03:22:25.999Z,45.30
2017-06-01T03:24:53.968Z,48.30
2017-06-01T03:27:21.478Z,45.60
2017-06-01T03:29:48.971Z,45.80
2017-06-01T03:32:16.496Z,46.40
2017-06-01T03:34:44.385Z,50.40
2017-06-01T03:37:12.424Z,47.30
2017-06-01T03:39:40.362Z,48.40
2017-06-01T03:42:07.857Z,48.40
2017-06-01T03:44:35.767Z,42.10
2017-06-01T03:47:03.292Z,41.90
2017-06-01T03:49:30.793Z,48.70
2017-06-01T03:51:58.700Z,47.50
2017-06-01T03:54:26.937Z,48.00
2017-06-01T03:56:54.833Z,46.10
2017-06-01T03:59:22.724Z,46.20
2017-06-01T04:01:50.644Z,43.70
2017-06-01T04:04:18.171Z,43.60
2017-06-01T04:06:46.095Z,45.30
2017-06-01T04:09:14.025Z,43.10
2017-06-01T04:11:44.603Z,42.20
2017-06-01T04:14:12.514Z,42.20
2017-06-01T04:16:41.645Z,41.60
2017-06-01T04:19:09.153Z,41.60
2017-06-01T04:21:37.050Z,46.10
2017-06-01T04:24:04.581Z,46.10
2017-06-01T04:26:32.472Z,47.10
2017-06-01T04:29:00.375Z,48.10
2017-06-01T04:31:28.307Z,40.60
2017-06-01T04:33:56.204Z,44.60
2017-06-01T04:36:24.106Z,44.60
2017-06-01T04:38:51.644Z,44.70
2017-06-01T04:41:19.152Z,47.30
2017-06-01T04:43:47.044Z,51.80
2017-06-01T04:46:14.597Z,51.80
2017-06-01T04:48:42.531Z,47.10
2017-06-01T04:51:10.420Z,45.60
2017-06-01T04:53:37.940Z,45.50
2017-06-01T04:56:05.440Z,51.50
2017-06-01T04:58:33.336Z,47.50
2017-06-01T05:01:00.877Z,47.70
2017-06-01T05:03:28.378Z,50.20
2017-06-01T05:05:56.596Z,46.70
2017-06-01T05:08:24.534Z,45.00
2017-06-01T05:10:52.040Z,45.00
2017-06-01T05:13:19.925Z,40.60
2017-06-01T05:15:47.452Z,40.60
2017-06-01T05:18:14.953Z,39.40
2017-06-01T05:20:42.846Z,37.50
2017-06-01T05:23:10.771Z,37.60
2017-06-01T05:25:38.664Z,37.60
2017-06-01T05:28:06.166Z,37.60
2017-06-01T05:30:33.717Z,36.00
2017-06-01T05:33:01.240Z,37.60
2017-06-01T05:35:28.758Z,39.60
2017-06-01T05:37:56.328Z,43.00
2017-06-01T05:40:24.253Z,39.70
2017-06-01T05:42:52.452Z,40.50
2017-06-01T05:45:20.616Z,44.10
2017-06-01T05:47:48.156Z,44.10
2017-06-01T05:50:15.892Z,43.10
2017-06-01T05:52:43.824Z,44.00
2017-06-01T05:55:11.374Z,44.00
2017-06-01T05:57:39.281Z,44.00
2017-06-01T06:00:07.229Z,41.80
2017-06-01T06:02:34.761Z,41.60
2017-06-01T06:05:02.672Z,42.80
2017-06-01T06:07:30.613Z,43.90
2017-06-01T06:09:58.522Z,40.30
2017-06-01T06:12:26.432Z,41.20
2017-06-01T06:14:54.010Z,41.20
2017-06-01T06:17:21.577Z,39.30
2017-06-01T06:19:49.084Z,40.00
2017-06-01T06:22:17.047Z,41.80
2017-06-01T06:24:45.348Z,41.80
2017-06-01T06:27:13.256Z,38.50
2017-06-01T06:29:40.832Z,38.40
2017-06-01T06:32:08.744Z,40.70
2017-06-01T06:34:36.257Z,40.70
2017-06-01T06:37:03.816Z,38.70
2017-06-01T06:39:31.307Z,39.00
2017-06-01T06:41:59.216Z,39.40
2017-06-01T06:44:26.785Z,39.40
2017-06-01T06:46:54.699Z,37.50
2017-06-01T06:49:22.625Z,37.10
2017-06-01T06:51:50.173Z,37.10
2017-06-01T06:54:17.678Z,34.70
2017-06-01T06:56:45.705Z,34.00
2017-06-01T06:59:13.280Z,34.00
2017-06-01T07:01:41.218Z,32.80
2017-06-01T07:04:08.723Z,32.80
2017-06-01T07:06:37.242Z,29.70
2017-06-01T07:09:04.784Z,29.70
2017-06-01T07:11:32.305Z,31.70
2017-06-01T07:14:00.239Z,29.00
2017-06-01T07:16:28.154Z,31.40
2017-06-01T07:18:56.056Z,30.70
2017-06-01T07:21:24.027Z,30.10
2017-06-01T07:23:51.947Z,29.50
2017-06-01T07:26:19.453Z,29.50
2017-06-01T07:28:47.420Z,28.90
2017-06-01T07:31:15.836Z,28.90
2017-06-01T07:33:43.369Z,28.30
2017-06-01T07:36:12.226Z,31.00
2017-06-01T07:38:40.115Z,31.90
2017-06-01T07:41:07.662Z,31.90
2017-06-01T07:43:35.651Z,31.40
2017-06-01T07:46:03.550Z,31.60
2017-06-01T07:48:31.465Z,31.90
2017-06-01T07:50:59.388Z,30.80
2017-06-01T07:53:27.288Z,30.40
2017-06-01T07:55:55.183Z,29.20
2017-06-01T07:58:23.242Z,30.10
2017-06-01T08:00:51.147Z,31.00
2017-06-01T08:03:18.645Z,31.00
2017-06-01T08:05:46.439Z,32.20
2017-06-01T08:08:14.617Z,33.10
2017-06-01T08:10:42.529Z,35.90
2017-06-01T08:13:10.052Z,35.90
2017-06-01T08:15:37.550Z,35.00
2017-06-01T08:18:05.048Z,33.10
2017-06-01T08:20:33.050Z,30.30
2017-06-01T08:23:00.992Z,30.30
2017-06-01T08:25:28.758Z,30.30
2017-06-01T08:27:56.728Z,29.80
2017-06-01T08:30:24.632Z,29.30
2017-06-01T08:32:52.550Z,29.40
2017-06-01T08:35:20.484Z,29.40
2017-06-01T08:37:48.380Z,29.20
2017-06-01T08:40:16.289Z,28.50
2017-06-01T08:42:43.832Z,28.50
2017-06-01T08:45:11.739Z,28.60
2017-06-01T08:47:39.245Z,28.60
2017-06-01T08:50:06.791Z,29.10
2017-06-01T08:52:34.991Z,28.60
2017-06-01T08:55:02.534Z,28.60
2017-06-01T08:57:30.190Z,28.50
2017-06-01T08:59:57.692Z,28.60
2017-06-01T09:02:25.205Z,28.60
2017-06-01T09:04:53.174Z,28.30
2017-06-01T09:07:21.360Z,28.50
2017-06-01T09:09:49.265Z,28.80
2017-06-01T09:12:17.208Z,28.90
2017-06-01T09:14:45.099Z,29.00
2017-06-01T09:17:12.993Z,28.60
2017-06-01T09:19:40.782Z,28.60
2017-06-01T09:22:08.686Z,28.30
2017-06-01T09:24:36.579Z,28.60
2017-06-01T09:27:04.213Z,28.60
2017-06-01T09:29:32.104Z,28.60
2017-06-01T09:32:00.335Z,28.20
2017-06-01T09:34:27.932Z,28.20
2017-06-01T09:36:55.899Z,28.10
2017-06-01T09:39:23.789Z,28.50
2017-06-01T09:41:51.768Z,28.20
2017-06-01T09:44:19.666Z,27.40
2017-06-01T09:46:47.171Z,27.40
2017-06-01T09:49:14.814Z,27.50
2017-06-01T09:51:43.066Z,27.40
2017-06-01T09:54:10.961Z,27.90
2017-06-01T09:56:38.909Z,27.60
2017-06-01T09:59:06.854Z,27.40
2017-06-01T10:01:34.629Z,27.40
2017-06-01T10:04:02.589Z,26.10
2017-06-01T10:06:30.488Z,25.20
2017-06-01T10:08:58.442Z,24.00
2017-06-01T10:11:25.979Z,24.00
2017-06-01T10:13:53.880Z,22.50
2017-06-01T10:16:21.918Z,21.90
2017-06-01T10:18:49.631Z,21.90
2017-06-01T10:21:17.927Z,21.00
2017-06-01T10:23:45.835Z,22.50
2017-06-01T10:26:13.779Z,21.10
2017-06-01T10:28:41.281Z,21.10
2017-06-01T10:31:09.178Z,22.70
2017-06-01T10:33:37.129Z,20.90
2017-06-01T10:36:04.645Z,20.90
2017-06-01T10:38:32.303Z,22.00
2017-06-01T10:40:59.884Z,20.90
2017-06-01T10:43:27.789Z,21.40
2017-06-01T10:45:56.021Z,20.60
2017-06-01T10:48:23.562Z,20.50
2017-06-01T10:50:51.444Z,21.00
2017-06-01T10:53:19.371Z,20.30
2017-06-01T10:55:47.336Z,20.60
2017-06-01T10:58:15.223Z,20.70
2017-06-01T11:00:43.120Z,21.00
2017-06-01T11:03:11.077Z,20.20
2017-06-01T11:05:38.609Z,20.10
2017-06-01T11:08:06.504Z,21.90
2017-06-01T11:10:34.473Z,22.30
2017-06-01T11:13:02.367Z,21.20
2017-06-01T11:15:30.517Z,21.40
2017-06-01T11:17:58.389Z,21.40
2017-06-01T11:20:25.893Z,20.10
2017-06-01T11:22:53.800Z,21.80
2017-06-01T11:25:21.752Z,20.30
2017-06-01T11:27:49.734Z,21.60
2017-06-01T11:30:17.669Z,21.10
2017-06-01T11:32:45.598Z,21.50
2017-06-01T11:35:13.499Z,21.00
2017-06-01T11:37:41.412Z,20.70
2017-06-01T11:40:09.890Z,21.10
2017-06-01T11:42:37.396Z,21.10
2017-06-01T11:45:05.221Z,19.80
2017-06-01T11:47:33.275Z,22.10
2017-06-01T11:50:00.810Z,22.10
2017-06-01T11:52:28.718Z,21.40
2017-06-01T11:54:56.272Z,21.40
2017-06-01T11:57:24.205Z,21.10
2017-06-01T11:59:52.124Z,20.20
2017-06-01T12:02:19.668Z,20.20
2017-06-01T12:04:47.191Z,20.60
2017-06-01T12:07:14.784Z,20.70
2017-06-01T12:09:42.724Z,20.00
2017-06-01T12:12:10.620Z,19.70
2017-06-01T12:14:38.530Z,21.30
2017-06-01T12:17:06.082Z,21.20
2017-06-01T12:19:34.329Z,20.30
2017-06-01T12:22:02.248Z,18.60
2017-06-01T12:24:30.209Z,18.80
2017-06-01T12:26:57.725Z,18.80
2017-06-01T12:29:25.223Z,19.20
2017-06-01T12:31:52.876Z,20.00
2017-06-01T12:34:20.772Z,20.90
2017-06-01T12:36:48.685Z,20.10
2017-06-01T12:39:16.648Z,21.00
2017-06-01T12:41:44.153Z,21.00
2017-06-01T12:44:12.068Z,22.10
2017-06-01T12:46:39.663Z,22.00
2017-06-01T12:49:07.599Z,18.70
2017-06-01T12:51:35.538Z,21.40
2017-06-01T12:54:03.218Z,21.50
2017-06-01T12:56:31.153Z,19.90
2017-06-01T12:58:58.658Z,19.90
2017-06-01T13:01:26.306Z,19.50
2017-06-01T13:03:54.979Z,18.90
2017-06-01T13:06:22.897Z,19.20
2017-06-01T13:08:50.944Z,18.80
2017-06-01T13:11:18.472Z,18.80
2017-06-01T13:13:46.381Z,19.80
2017-06-01T13:16:13.974Z,19.80
2017-06-01T13:18:41.884Z,19.90
2017-06-01T13:21:09.823Z,19.30
2017-06-01T13:23:37.764Z,19.10
2017-06-01T13:26:05.692Z,19.20
2017-06-01T13:28:33.591Z,18.70
2017-06-01T13:31:01.131Z,18.70
2017-06-01T13:33:28.648Z,18.40
2017-06-01T13:35:56.177Z,20.80
2017-06-01T13:38:24.141Z,20.00
2017-06-01T13:40:52.386Z,21.20
2017-06-01T13:43:19.886Z,21.20
2017-06-01T13:45:47.436Z,20.00
2017-06-01T13:48:14.952Z,20.00
2017-06-01T13:50:42.855Z,20.50
2017-06-01T13:53:10.788Z,21.50
2017-06-01T13:55:38.295Z,21.50
2017-06-01T13:58:05.823Z,21.90
2017-06-01T14:00:33.362Z,22.00
2017-06-01T14:03:00.865Z,21.20
2017-06-01T14:05:28.781Z,21.20
2017-06-01T14:07:56.725Z,21.00
2017-06-01T14:10:24.960Z,20.80
2017-06-01T14:12:52.873Z,19.90
2017-06-01T14:15:20.504Z,19.90
2017-06-01T14:17:48.232Z,20.90
2017-06-01T14:20:16.137Z,21.60
2017-06-01T14:22:44.113Z,21.80
2017-06-01T14:25:11.617Z,21.80
2017-06-01T14:27:39.128Z,21.50
2017-06-01T14:30:07.074Z,20.70
2017-06-01T14:32:34.981Z,22.20
2017-06-01T14:35:02.479Z,22.20
2017-06-01T14:37:30.015Z,21.80
2017-06-01T14:39:57.533Z,21.80
2017-06-01T14:42:25.257Z,22.10
2017-06-01T14:44:52.820Z,22.20
2017-06-01T14:47:20.722Z,22.40
2017-06-01T14:49:48.623Z,21.50
2017-06-01T14:52:16.564Z,22.60
2017-06-01T14:54:44.473Z,22.60
2017-06-01T14:57:12.389Z,20.40
2017-06-01T14:59:39.925Z,20.40
2017-06-01T15:02:07.872Z,22.60
2017-06-01T15:04:35.779Z,23.60
2017-06-01T15:07:03.749Z,23.10
2017-06-01T15:09:31.252Z,23.00
2017-06-01T15:11:59.150Z,22.40
2017-06-01T15:14:27.082Z,25.20
2017-06-01T15:16:54.609Z,25.20
2017-06-01T15:19:22.115Z,23.50
2017-06-01T15:21:50.952Z,24.40
2017-06-01T15:24:18.460Z,24.40
2017-06-01T15:26:46.376Z,23.20
2017-06-01T15:29:14.296Z,24.20
2017-06-01T15:31:42.209Z,23.10
2017-06-01T15:34:09.720Z,23.10
2017-06-01T15:36:37.258Z,23.80
2017-06-01T15:39:05.154Z,25.20
2017-06-01T15:41:32.661Z,25.00
2017-06-01T15:44:00.621Z,25.60
2017-06-01T15:46:28.116Z,25.60
2017-06-01T21:22:11.176Z,35.60
2017-06-01T21:24:39.069Z,34.00
2017-06-01T21:27:06.572Z,34.00
2017-06-01T21:29:34.662Z,34.70
2017-06-01T21:32:02.168Z,34.70
2017-06-01T21:34:30.067Z,34.80
2017-06-01T21:36:58.020Z,34.00
2017-06-01T21:39:25.538Z,34.00
2017-06-01T21:41:53.385Z,35.70
2017-06-01T21:44:21.338Z,34.20
2017-06-01T21:46:49.227Z,34.40
2017-06-01T21:49:17.215Z,35.00
2017-06-01T21:51:44.812Z,35.00
2017-06-01T21:54:12.413Z,36.00
2017-06-01T21:56:40.340Z,37.50
2017-06-01T21:59:08.268Z,36.00
2017-06-01T22:01:36.464Z,35.60
2017-06-01T22:04:04.080Z,35.60
2017-06-01T22:06:32.529Z,35.40
2017-06-01T22:09:00.029Z,35.90
2017-06-01T22:11:27.687Z,38.80
2017-06-01T22:13:55.716Z,37.20
2017-06-01T22:16:23.616Z,37.50
2017-06-01T22:18:52.103Z,37.50
2017-06-01T22:21:19.620Z,38.50
2017-06-01T22:23:47.120Z,38.40
2017-06-01T22:26:15.016Z,39.30
2017-06-01T22:28:42.659Z,39.30
2017-06-01T22:31:10.552Z,39.10
2017-06-01T22:33:38.054Z,39.10
2017-06-01T22:36:05.987Z,36.60
2017-06-01T22:38:33.524Z,36.60
2017-06-01T22:41:01.428Z,35.10
2017-06-01T22:43:28.969Z,35.10
2017-06-01T22:45:56.968Z,34.20
2017-06-01T22:48:24.462Z,34.20
2017-06-01T22:50:51.998Z,34.00
2017-06-01T22:53:19.896Z,33.50
2017-06-01T22:55:47.407Z,33.50
2017-06-01T22:58:15.360Z,33.20
2017-06-01T23:00:43.124Z,33.20
2017-06-01T23:03:10.648Z,33.20
2017-06-01T23:05:38.656Z,33.20
2017-06-01T23:08:06.592Z,33.20
2017-06-01T23:10:34.695Z,33.20
2017-06-01T23:13:02.265Z,33.20
2017-06-01T23:15:29.770Z,33.20
2017-06-01T23:17:57.666Z,33.40
2017-06-01T23:20:25.475Z,33.40
2017-06-01T23:22:53.376Z,33.40
2017-06-01T23:25:20.875Z,33.40
2017-06-01T23:27:48.420Z,33.40
2017-06-01T23:30:16.319Z,33.70
2017-06-01T23:32:43.812Z,33.70
2017-06-01T23:35:11.971Z,33.70
2017-06-01T23:37:39.571Z,33.70
2017-06-01T23:40:07.080Z,33.70
2017-06-01T23:42:35.046Z,33.70
2017-06-01T23:45:02.945Z,33.70
2017-06-01T23:47:31.086Z,33.70
2017-06-01T23:49:58.616Z,33.70
2017-06-01T23:52:26.517Z,33.50
2017-06-01T23:54:54.017Z,33.50
2017-06-01T23:57:21.548Z,33.50
2017-06-01T23:59:49.057Z,33.40
